sensor_id;sensor_type;location;lat;lon;timestamp;temperature;humidity
15239;DHT22;7722;53.274;9.500;2023-05-10T00:02:23;14.60;69.00
15239;DHT22;7722;53.274;9.500;2023-05-10T00:04:50;14.50;69.10
15239;DHT22;7722;53.274;9.500;2023-05-10T00:07:17;14.40;69.90
15239;DHT22;7722;53.274;9.500;2023-05-10T00:09:44;14.30;70.00
15239;DHT22;7722;53.274;9.500;2023-05-10T00:12:12;14.30;70.40
15239;DHT22;7722;53.274;9.500;2023-05-10T00:14:39;14.20;70.70
15239;DHT22;7722;53.274;9.500;2023-05-10T00:17:07;14.20;71.50
15239;DHT22;7722;53.274;9.500;2023-05-10T00:19:34;14.10;71.90
15239;DHT22;7722;53.274;9.500;2023-05-10T00:22:01;14.00;72.30
15239;DHT22;7722;53.274;9.500;2023-05-10T00:24:28;14.00;72.80
15239;DHT22;7722;53.274;9.500;2023-05-10T00:26:56;13.90;72.80
15239;DHT22;7722;53.274;9.500;2023-05-10T00:29:23;13.80;73.50
15239;DHT22;7722;53.274;9.500;2023-05-10T00:31:50;13.80;74.20
15239;DHT22;7722;53.274;9.500;2023-05-10T00:34:18;13.70;73.90
15239;DHT22;7722;53.274;9.500;2023-05-10T00:36:45;13.70;74.30
15239;DHT22;7722;53.274;9.500;2023-05-10T00:39:12;13.60;75.20
15239;DHT22;7722;53.274;9.500;2023-05-10T00:41:39;13.50;75.60
15239;DHT22;7722;53.274;9.500;2023-05-10T00:44:06;13.40;76.60
15239;DHT22;7722;53.274;9.500;2023-05-10T00:46:33;13.30;76.80
15239;DHT22;7722;53.274;9.500;2023-05-10T00:49:00;13.30;77.00
15239;DHT22;7722;53.274;9.500;2023-05-10T00:51:29;13.30;77.60
15239;DHT22;7722;53.274;9.500;2023-05-10T00:53:56;13.20;77.60
15239;DHT22;7722;53.274;9.500;2023-05-10T00:56:24;13.20;78.70
15239;DHT22;7722;53.274;9.500;2023-05-10T00:58:51;13.10;79.10
15239;DHT22;7722;53.274;9.500;2023-05-10T01:01:19;12.90;79.70
15239;DHT22;7722;53.274;9.500;2023-05-10T01:03:46;12.90;80.20
15239;DHT22;7722;53.274;9.500;2023-05-10T01:06:13;12.80;80.40
15239;DHT22;7722;53.274;9.500;2023-05-10T01:08:42;12.70;81.20
15239;DHT22;7722;53.274;9.500;2023-05-10T01:11:09;12.70;82.10
15239;DHT22;7722;53.274;9.500;2023-05-10T01:13:38;12.60;82.50
15239;DHT22;7722;53.274;9.500;2023-05-10T01:16:06;12.60;82.50
15239;DHT22;7722;53.274;9.500;2023-05-10T01:18:36;12.60;82.80
15239;DHT22;7722;53.274;9.500;2023-05-10T01:21:14;12.60;83.30
15239;DHT22;7722;53.274;9.500;2023-05-10T01:24:00;12.50;83.60
15239;DHT22;7722;53.274;9.500;2023-05-10T01:26:50;12.50;84.20
15239;DHT22;7722;53.274;9.500;2023-05-10T01:29:40;12.40;83.90
15239;DHT22;7722;53.274;9.500;2023-05-10T01:32:31;12.40;84.10
15239;DHT22;7722;53.274;9.500;2023-05-10T01:35:02;12.30;84.50
15239;DHT22;7722;53.274;9.500;2023-05-10T01:37:41;12.30;85.10
15239;DHT22;7722;53.274;9.500;2023-05-10T01:40:15;12.20;85.20
15239;DHT22;7722;53.274;9.500;2023-05-10T01:42:49;12.20;85.30
15239;DHT22;7722;53.274;9.500;2023-05-10T01:45:24;12.20;85.60
15239;DHT22;7722;53.274;9.500;2023-05-10T01:48:03;12.20;85.40
15239;DHT22;7722;53.274;9.500;2023-05-10T01:50:31;12.10;86.20
15239;DHT22;7722;53.274;9.500;2023-05-10T01:53:00;12.10;86.40
15239;DHT22;7722;53.274;9.500;2023-05-10T01:55:30;12.00;86.90
15239;DHT22;7722;53.274;9.500;2023-05-10T01:58:02;12.00;86.70
15239;DHT22;7722;53.274;9.500;2023-05-10T02:00:31;12.00;87.20
15239;DHT22;7722;53.274;9.500;2023-05-10T02:03:03;11.90;87.70
15239;DHT22;7722;53.274;9.500;2023-05-10T02:05:33;11.80;88.10
15239;DHT22;7722;53.274;9.500;2023-05-10T02:08:01;11.80;88.50
15239;DHT22;7722;53.274;9.500;2023-05-10T02:10:30;11.70;88.60
15239;DHT22;7722;53.274;9.500;2023-05-10T02:12:59;11.70;89.00
15239;DHT22;7722;53.274;9.500;2023-05-10T02:15:27;11.70;89.20
15239;DHT22;7722;53.274;9.500;2023-05-10T02:17:55;11.60;89.90
15239;DHT22;7722;53.274;9.500;2023-05-10T02:20:25;11.60;90.30
15239;DHT22;7722;53.274;9.500;2023-05-10T02:22:55;11.50;90.20
15239;DHT22;7722;53.274;9.500;2023-05-10T02:25:23;11.50;90.30
15239;DHT22;7722;53.274;9.500;2023-05-10T02:27:53;11.50;90.50
15239;DHT22;7722;53.274;9.500;2023-05-10T02:30:22;11.50;90.70
15239;DHT22;7722;53.274;9.500;2023-05-10T02:32:50;11.40;90.90
15239;DHT22;7722;53.274;9.500;2023-05-10T02:35:19;11.40;91.00
15239;DHT22;7722;53.274;9.500;2023-05-10T02:37:48;11.40;91.20
15239;DHT22;7722;53.274;9.500;2023-05-10T02:40:15;11.30;91.30
15239;DHT22;7722;53.274;9.500;2023-05-10T02:42:44;11.30;91.50
15239;DHT22;7722;53.274;9.500;2023-05-10T02:45:14;11.30;91.60
15239;DHT22;7722;53.274;9.500;2023-05-10T02:47:43;11.40;91.60
15239;DHT22;7722;53.274;9.500;2023-05-10T02:50:10;11.30;91.90
15239;DHT22;7722;53.274;9.500;2023-05-10T02:52:40;11.30;91.80
15239;DHT22;7722;53.274;9.500;2023-05-10T02:55:13;11.40;92.00
15239;DHT22;7722;53.274;9.500;2023-05-10T02:57:43;11.40;91.90
15239;DHT22;7722;53.274;9.500;2023-05-10T03:00:12;11.40;91.90
15239;DHT22;7722;53.274;9.500;2023-05-10T03:02:39;11.30;92.10
15239;DHT22;7722;53.274;9.500;2023-05-10T03:05:06;11.30;92.30
15239;DHT22;7722;53.274;9.500;2023-05-10T03:07:33;11.30;92.40
15239;DHT22;7722;53.274;9.500;2023-05-10T03:10:00;11.30;92.40
15239;DHT22;7722;53.274;9.500;2023-05-10T03:12:37;11.30;92.80
15239;DHT22;7722;53.274;9.500;2023-05-10T03:15:13;11.20;92.70
15239;DHT22;7722;53.274;9.500;2023-05-10T03:17:48;11.20;92.90
15239;DHT22;7722;53.274;9.500;2023-05-10T03:20:22;11.10;93.10
15239;DHT22;7722;53.274;9.500;2023-05-10T03:22:55;11.10;93.20
15239;DHT22;7722;53.274;9.500;2023-05-10T03:25:23;11.00;93.20
15239;DHT22;7722;53.274;9.500;2023-05-10T03:27:52;11.00;93.50
15239;DHT22;7722;53.274;9.500;2023-05-10T03:30:19;11.00;93.50
15239;DHT22;7722;53.274;9.500;2023-05-10T03:32:46;11.00;93.70
15239;DHT22;7722;53.274;9.500;2023-05-10T03:35:14;11.10;93.80
15239;DHT22;7722;53.274;9.500;2023-05-10T03:37:41;11.00;93.90
15239;DHT22;7722;53.274;9.500;2023-05-10T03:40:08;11.10;94.00
15239;DHT22;7722;53.274;9.500;2023-05-10T03:42:35;11.10;94.00
15239;DHT22;7722;53.274;9.500;2023-05-10T03:45:05;11.10;94.20
15239;DHT22;7722;53.274;9.500;2023-05-10T03:47:32;11.10;94.20
15239;DHT22;7722;53.274;9.500;2023-05-10T03:49:59;11.20;94.30
15239;DHT22;7722;53.274;9.500;2023-05-10T03:52:27;11.20;94.40
15239;DHT22;7722;53.274;9.500;2023-05-10T03:54:54;11.10;94.60
15239;DHT22;7722;53.274;9.500;2023-05-10T03:57:21;11.10;94.70
15239;DHT22;7722;53.274;9.500;2023-05-10T03:59:48;11.10;94.90
15239;DHT22;7722;53.274;9.500;2023-05-10T04:02:17;11.10;94.70
15239;DHT22;7722;53.274;9.500;2023-05-10T04:04:44;11.10;94.80
15239;DHT22;7722;53.274;9.500;2023-05-10T04:07:10;11.10;95.00
15239;DHT22;7722;53.274;9.500;2023-05-10T04:09:37;11.20;95.40
15239;DHT22;7722;53.274;9.500;2023-05-10T04:12:05;11.20;95.50
15239;DHT22;7722;53.274;9.500;2023-05-10T04:14:32;11.20;95.40
15239;DHT22;7722;53.274;9.500;2023-05-10T04:16:59;11.30;95.40
15239;DHT22;7722;53.274;9.500;2023-05-10T04:19:30;11.30;95.40
15239;DHT22;7722;53.274;9.500;2023-05-10T04:21:58;11.30;95.60
15239;DHT22;7722;53.274;9.500;2023-05-10T04:24:25;11.40;95.70
15239;DHT22;7722;53.274;9.500;2023-05-10T04:26:54;11.50;95.60
15239;DHT22;7722;53.274;9.500;2023-05-10T04:29:21;11.60;95.60
15239;DHT22;7722;53.274;9.500;2023-05-10T04:31:48;11.60;95.50
15239;DHT22;7722;53.274;9.500;2023-05-10T04:34:16;11.80;95.40
15239;DHT22;7722;53.274;9.500;2023-05-10T04:36:45;11.90;95.40
15239;DHT22;7722;53.274;9.500;2023-05-10T04:39:12;12.00;95.30
15239;DHT22;7722;53.274;9.500;2023-05-10T04:41:39;12.20;95.20
15239;DHT22;7722;53.274;9.500;2023-05-10T04:44:06;12.20;95.30
15239;DHT22;7722;53.274;9.500;2023-05-10T04:46:33;12.30;94.80
15239;DHT22;7722;53.274;9.500;2023-05-10T04:49:00;12.40;95.00
15239;DHT22;7722;53.274;9.500;2023-05-10T04:51:28;12.50;94.70
15239;DHT22;7722;53.274;9.500;2023-05-10T04:53:57;12.60;94.60
15239;DHT22;7722;53.274;9.500;2023-05-10T04:56:24;12.70;94.50
15239;DHT22;7722;53.274;9.500;2023-05-10T04:58:51;12.70;94.60
15239;DHT22;7722;53.274;9.500;2023-05-10T05:01:18;12.80;94.20
15239;DHT22;7722;53.274;9.500;2023-05-10T05:03:45;12.80;94.30
15239;DHT22;7722;53.274;9.500;2023-05-10T05:06:12;12.90;94.40
15239;DHT22;7722;53.274;9.500;2023-05-10T05:08:39;13.00;94.80
15239;DHT22;7722;53.274;9.500;2023-05-10T05:11:08;13.00;94.20
15239;DHT22;7722;53.274;9.500;2023-05-10T05:13:35;13.10;94.40
15239;DHT22;7722;53.274;9.500;2023-05-10T05:16:03;13.20;94.10
15239;DHT22;7722;53.274;9.500;2023-05-10T05:18:30;13.20;94.00
15239;DHT22;7722;53.274;9.500;2023-05-10T05:20:57;13.30;94.40
15239;DHT22;7722;53.274;9.500;2023-05-10T05:23:24;13.30;94.20
15239;DHT22;7722;53.274;9.500;2023-05-10T05:25:54;13.40;94.20
15239;DHT22;7722;53.274;9.500;2023-05-10T05:28:22;13.60;93.90
15239;DHT22;7722;53.274;9.500;2023-05-10T05:30:51;13.70;93.90
15239;DHT22;7722;53.274;9.500;2023-05-10T05:33:18;13.90;93.70
15239;DHT22;7722;53.274;9.500;2023-05-10T05:35:45;13.90;93.70
15239;DHT22;7722;53.274;9.500;2023-05-10T05:38:16;13.90;93.40
15239;DHT22;7722;53.274;9.500;2023-05-10T05:40:43;13.90;93.60
15239;DHT22;7722;53.274;9.500;2023-05-10T05:43:11;14.00;94.00
15239;DHT22;7722;53.274;9.500;2023-05-10T05:45:39;14.00;94.00
15239;DHT22;7722;53.274;9.500;2023-05-10T05:48:06;13.90;93.60
15239;DHT22;7722;53.274;9.500;2023-05-10T05:50:33;14.00;94.10
15239;DHT22;7722;53.274;9.500;2023-05-10T05:53:00;14.00;94.00
15239;DHT22;7722;53.274;9.500;2023-05-10T05:55:27;13.90;94.10
15239;DHT22;7722;53.274;9.500;2023-05-10T05:57:57;13.90;94.40
15239;DHT22;7722;53.274;9.500;2023-05-10T06:00:24;13.90;94.20
15239;DHT22;7722;53.274;9.500;2023-05-10T06:02:53;13.90;94.60
15239;DHT22;7722;53.274;9.500;2023-05-10T06:05:20;13.90;94.30
15239;DHT22;7722;53.274;9.500;2023-05-10T06:07:47;13.90;94.20
15239;DHT22;7722;53.274;9.500;2023-05-10T06:10:14;14.00;94.10
15239;DHT22;7722;53.274;9.500;2023-05-10T06:12:41;13.80;94.10
15239;DHT22;7722;53.274;9.500;2023-05-10T06:15:09;13.90;94.30
15239;DHT22;7722;53.274;9.500;2023-05-10T06:17:36;14.00;94.20
15239;DHT22;7722;53.274;9.500;2023-05-10T06:20:07;13.90;94.20
15239;DHT22;7722;53.274;9.500;2023-05-10T06:22:34;14.00;94.40
15239;DHT22;7722;53.274;9.500;2023-05-10T06:25:01;14.00;94.70
15239;DHT22;7722;53.274;9.500;2023-05-10T06:27:28;14.00;94.40
15239;DHT22;7722;53.274;9.500;2023-05-10T06:29:56;14.10;94.40
15239;DHT22;7722;53.274;9.500;2023-05-10T06:32:23;14.00;94.70
15239;DHT22;7722;53.274;9.500;2023-05-10T06:34:50;14.10;95.00
15239;DHT22;7722;53.274;9.500;2023-05-10T06:37:19;14.00;96.00
15239;DHT22;7722;53.274;9.500;2023-05-10T06:39:46;14.00;96.10
15239;DHT22;7722;53.274;9.500;2023-05-10T06:42:14;13.90;96.60
15239;DHT22;7722;53.274;9.500;2023-05-10T06:44:41;13.90;97.40
15239;DHT22;7722;53.274;9.500;2023-05-10T06:47:09;13.80;98.00
15239;DHT22;7722;53.274;9.500;2023-05-10T06:49:37;13.80;98.80
15239;DHT22;7722;53.274;9.500;2023-05-10T06:52:04;13.70;99.40
15239;DHT22;7722;53.274;9.500;2023-05-10T06:54:32;13.70;99.40
15239;DHT22;7722;53.274;9.500;2023-05-10T06:56:59;13.70;99.50
15239;DHT22;7722;53.274;9.500;2023-05-10T06:59:28;13.80;99.90
15239;DHT22;7722;53.274;9.500;2023-05-10T07:01:55;13.80;99.90
15239;DHT22;7722;53.274;9.500;2023-05-10T07:04:22;13.90;99.90
15239;DHT22;7722;53.274;9.500;2023-05-10T07:06:49;13.70;99.90
15239;DHT22;7722;53.274;9.500;2023-05-10T07:09:16;13.70;99.90
15239;DHT22;7722;53.274;9.500;2023-05-10T07:11:45;13.70;99.90
15239;DHT22;7722;53.274;9.500;2023-05-10T07:14:12;13.50;99.90
15239;DHT22;7722;53.274;9.500;2023-05-10T07:16:39;13.40;99.90
15239;DHT22;7722;53.274;9.500;2023-05-10T07:19:06;13.30;99.90
15239;DHT22;7722;53.274;9.500;2023-05-10T07:21:33;13.30;99.90
15239;DHT22;7722;53.274;9.500;2023-05-10T07:24:00;13.10;99.90
15239;DHT22;7722;53.274;9.500;2023-05-10T07:26:29;13.00;99.90
15239;DHT22;7722;53.274;9.500;2023-05-10T07:28:57;12.90;99.90
15239;DHT22;7722;53.274;9.500;2023-05-10T07:31:24;13.00;99.90
15239;DHT22;7722;53.274;9.500;2023-05-10T07:33:51;12.90;99.90
15239;DHT22;7722;53.274;9.500;2023-05-10T07:36:19;12.90;99.90
15239;DHT22;7722;53.274;9.500;2023-05-10T07:38:46;13.00;99.90
15239;DHT22;7722;53.274;9.500;2023-05-10T07:41:13;13.00;99.90
15239;DHT22;7722;53.274;9.500;2023-05-10T07:43:40;12.90;99.90
15239;DHT22;7722;53.274;9.500;2023-05-10T07:46:08;12.80;99.90
15239;DHT22;7722;53.274;9.500;2023-05-10T07:48:36;12.70;99.90
15239;DHT22;7722;53.274;9.500;2023-05-10T07:51:03;12.60;99.90
15239;DHT22;7722;53.274;9.500;2023-05-10T07:53:32;12.60;99.90
15239;DHT22;7722;53.274;9.500;2023-05-10T07:55:59;12.50;99.90
15239;DHT22;7722;53.274;9.500;2023-05-10T07:58:26;12.40;99.90
15239;DHT22;7722;53.274;9.500;2023-05-10T08:00:53;12.50;99.90
15239;DHT22;7722;53.274;9.500;2023-05-10T08:03:22;12.40;99.90
15239;DHT22;7722;53.274;9.500;2023-05-10T08:05:49;12.40;99.90
15239;DHT22;7722;53.274;9.500;2023-05-10T08:08:16;12.40;99.90
15239;DHT22;7722;53.274;9.500;2023-05-10T08:10:44;12.40;99.90
15239;DHT22;7722;53.274;9.500;2023-05-10T08:13:11;12.40;99.90
15239;DHT22;7722;53.274;9.500;2023-05-10T08:15:39;12.40;99.90
15239;DHT22;7722;53.274;9.500;2023-05-10T08:18:06;12.40;99.90
15239;DHT22;7722;53.274;9.500;2023-05-10T08:20:34;12.40;99.90
15239;DHT22;7722;53.274;9.500;2023-05-10T08:23:01;12.30;99.90
15239;DHT22;7722;53.274;9.500;2023-05-10T08:25:28;12.30;99.90
15239;DHT22;7722;53.274;9.500;2023-05-10T08:27:55;12.20;99.90
15239;DHT22;7722;53.274;9.500;2023-05-10T08:30:23;12.30;99.90
15239;DHT22;7722;53.274;9.500;2023-05-10T08:32:50;12.30;99.90
15239;DHT22;7722;53.274;9.500;2023-05-10T08:35:17;12.20;99.90
15239;DHT22;7722;53.274;9.500;2023-05-10T08:37:46;12.20;99.90
15239;DHT22;7722;53.274;9.500;2023-05-10T08:40:14;12.20;99.90
15239;DHT22;7722;53.274;9.500;2023-05-10T08:42:49;12.10;99.90
15239;DHT22;7722;53.274;9.500;2023-05-10T08:45:19;12.00;99.90
15239;DHT22;7722;53.274;9.500;2023-05-10T08:47:46;12.00;99.90
15239;DHT22;7722;53.274;9.500;2023-05-10T08:50:15;12.00;99.90
15239;DHT22;7722;53.274;9.500;2023-05-10T08:52:43;12.10;99.90
15239;DHT22;7722;53.274;9.500;2023-05-10T08:55:15;12.00;99.90
15239;DHT22;7722;53.274;9.500;2023-05-10T08:57:43;12.00;99.90
15239;DHT22;7722;53.274;9.500;2023-05-10T09:00:11;12.00;99.90
15239;DHT22;7722;53.274;9.500;2023-05-10T09:02:38;12.00;99.90
15239;DHT22;7722;53.274;9.500;2023-05-10T09:05:07;12.10;99.90
15239;DHT22;7722;53.274;9.500;2023-05-10T09:07:35;12.10;99.90
15239;DHT22;7722;53.274;9.500;2023-05-10T09:10:04;12.10;99.90
15239;DHT22;7722;53.274;9.500;2023-05-10T09:12:33;12.10;99.90
15239;DHT22;7722;53.274;9.500;2023-05-10T09:15:00;12.10;99.90
15239;DHT22;7722;53.274;9.500;2023-05-10T09:17:29;12.10;99.90
15239;DHT22;7722;53.274;9.500;2023-05-10T09:19:59;12.10;99.90
15239;DHT22;7722;53.274;9.500;2023-05-10T09:22:27;12.30;99.90
15239;DHT22;7722;53.274;9.500;2023-05-10T09:25:04;12.30;99.90
15239;DHT22;7722;53.274;9.500;2023-05-10T09:30:01;12.40;99.90
15239;DHT22;7722;53.274;9.500;2023-05-10T09:32:36;12.50;99.90
15239;DHT22;7722;53.274;9.500;2023-05-10T09:35:08;12.50;99.90
15239;DHT22;7722;53.274;9.500;2023-05-10T09:37:35;12.50;99.90
15239;DHT22;7722;53.274;9.500;2023-05-10T09:40:05;12.40;99.90
15239;DHT22;7722;53.274;9.500;2023-05-10T09:42:33;12.60;99.90
15239;DHT22;7722;53.274;9.500;2023-05-10T09:45:05;12.60;99.90
15239;DHT22;7722;53.274;9.500;2023-05-10T09:47:32;12.60;99.90
15239;DHT22;7722;53.274;9.500;2023-05-10T09:50:00;12.80;99.90
15239;DHT22;7722;53.274;9.500;2023-05-10T09:52:30;12.70;99.90
15239;DHT22;7722;53.274;9.500;2023-05-10T09:54:57;12.70;99.90
15239;DHT22;7722;53.274;9.500;2023-05-10T09:57:25;12.70;99.90
15239;DHT22;7722;53.274;9.500;2023-05-10T09:59:52;12.70;99.90
15239;DHT22;7722;53.274;9.500;2023-05-10T10:02:28;12.70;99.90
15239;DHT22;7722;53.274;9.500;2023-05-10T10:04:55;12.90;99.90
15239;DHT22;7722;53.274;9.500;2023-05-10T10:07:23;13.00;99.90
15239;DHT22;7722;53.274;9.500;2023-05-10T10:09:51;13.10;99.90
15239;DHT22;7722;53.274;9.500;2023-05-10T10:12:20;13.20;99.90
15239;DHT22;7722;53.274;9.500;2023-05-10T10:14:47;13.30;99.90
15239;DHT22;7722;53.274;9.500;2023-05-10T10:17:16;13.40;99.90
15239;DHT22;7722;53.274;9.500;2023-05-10T10:19:45;13.60;99.90
15239;DHT22;7722;53.274;9.500;2023-05-10T10:22:12;13.90;99.90
15239;DHT22;7722;53.274;9.500;2023-05-10T10:24:39;14.00;99.90
15239;DHT22;7722;53.274;9.500;2023-05-10T10:27:16;14.30;99.90
15239;DHT22;7722;53.274;9.500;2023-05-10T10:29:52;14.50;99.90
15239;DHT22;7722;53.274;9.500;2023-05-10T10:32:30;14.40;99.90
15239;DHT22;7722;53.274;9.500;2023-05-10T10:35:01;14.60;99.90
15239;DHT22;7722;53.274;9.500;2023-05-10T10:37:44;14.60;99.90
15239;DHT22;7722;53.274;9.500;2023-05-10T10:40:25;14.60;99.90
15239;DHT22;7722;53.274;9.500;2023-05-10T10:42:52;14.60;99.90
15239;DHT22;7722;53.274;9.500;2023-05-10T10:45:21;14.60;99.90
15239;DHT22;7722;53.274;9.500;2023-05-10T10:47:48;14.70;99.90
15239;DHT22;7722;53.274;9.500;2023-05-10T10:50:20;14.70;99.90
15239;DHT22;7722;53.274;9.500;2023-05-10T10:52:47;14.80;99.90
15239;DHT22;7722;53.274;9.500;2023-05-10T10:55:18;14.90;99.90
15239;DHT22;7722;53.274;9.500;2023-05-10T10:57:49;14.80;99.90
15239;DHT22;7722;53.274;9.500;2023-05-10T11:00:35;15.00;99.90
15239;DHT22;7722;53.274;9.500;2023-05-10T11:03:04;15.10;99.90
15239;DHT22;7722;53.274;9.500;2023-05-10T11:05:39;15.20;99.90
15239;DHT22;7722;53.274;9.500;2023-05-10T11:08:14;15.30;99.90
15239;DHT22;7722;53.274;9.500;2023-05-10T11:10:53;15.40;99.90
15239;DHT22;7722;53.274;9.500;2023-05-10T11:13:31;15.60;99.90
15239;DHT22;7722;53.274;9.500;2023-05-10T11:15:59;15.50;99.90
15239;DHT22;7722;53.274;9.500;2023-05-10T11:18:36;15.60;99.90
15239;DHT22;7722;53.274;9.500;2023-05-10T11:21:06;15.80;99.90
15239;DHT22;7722;53.274;9.500;2023-05-10T11:23:49;15.90;99.90
15239;DHT22;7722;53.274;9.500;2023-05-10T11:26:17;16.10;99.90
15239;DHT22;7722;53.274;9.500;2023-05-10T11:28:45;16.10;99.90
15239;DHT22;7722;53.274;9.500;2023-05-10T11:31:13;16.10;99.90
15239;DHT22;7722;53.274;9.500;2023-05-10T11:33:44;16.10;99.90
15239;DHT22;7722;53.274;9.500;2023-05-10T11:36:15;15.90;99.90
15239;DHT22;7722;53.274;9.500;2023-05-10T11:38:42;15.90;99.90
15239;DHT22;7722;53.274;9.500;2023-05-10T11:41:09;16.10;99.90
15239;DHT22;7722;53.274;9.500;2023-05-10T11:43:37;16.00;99.90
15239;DHT22;7722;53.274;9.500;2023-05-10T11:46:05;15.80;99.90
15239;DHT22;7722;53.274;9.500;2023-05-10T11:48:32;16.00;99.90
15239;DHT22;7722;53.274;9.500;2023-05-10T11:51:01;16.00;99.90
15239;DHT22;7722;53.274;9.500;2023-05-10T11:53:30;16.10;99.90
15239;DHT22;7722;53.274;9.500;2023-05-10T11:56:02;16.10;99.90
15239;DHT22;7722;53.274;9.500;2023-05-10T11:58:30;16.30;99.90
15239;DHT22;7722;53.274;9.500;2023-05-10T12:00:58;16.50;99.90
15239;DHT22;7722;53.274;9.500;2023-05-10T12:03:25;16.70;99.90
15239;DHT22;7722;53.274;9.500;2023-05-10T12:05:53;16.70;99.90
15239;DHT22;7722;53.274;9.500;2023-05-10T12:08:22;16.60;99.90
15239;DHT22;7722;53.274;9.500;2023-05-10T12:10:51;16.70;99.90
15239;DHT22;7722;53.274;9.500;2023-05-10T12:13:19;16.60;99.90
15239;DHT22;7722;53.274;9.500;2023-05-10T12:15:46;16.80;99.90
15239;DHT22;7722;53.274;9.500;2023-05-10T12:18:14;16.60;99.90
15239;DHT22;7722;53.274;9.500;2023-05-10T12:20:41;16.70;99.90
15239;DHT22;7722;53.274;9.500;2023-05-10T12:23:10;16.80;99.90
15239;DHT22;7722;53.274;9.500;2023-05-10T12:25:37;16.90;99.90
15239;DHT22;7722;53.274;9.500;2023-05-10T12:28:08;16.70;99.90
15239;DHT22;7722;53.274;9.500;2023-05-10T12:30:36;16.90;99.90
15239;DHT22;7722;53.274;9.500;2023-05-10T12:33:08;17.00;99.90
15239;DHT22;7722;53.274;9.500;2023-05-10T12:35:45;16.80;99.90
15239;DHT22;7722;53.274;9.500;2023-05-10T12:38:29;16.90;99.90
15239;DHT22;7722;53.274;9.500;2023-05-10T12:40:57;16.90;99.90
15239;DHT22;7722;53.274;9.500;2023-05-10T12:43:25;16.80;99.90
15239;DHT22;7722;53.274;9.500;2023-05-10T12:45:52;16.80;99.90
15239;DHT22;7722;53.274;9.500;2023-05-10T12:48:20;17.00;99.90
15239;DHT22;7722;53.274;9.500;2023-05-10T12:50:47;17.10;99.90
15239;DHT22;7722;53.274;9.500;2023-05-10T12:53:14;17.20;99.90
15239;DHT22;7722;53.274;9.500;2023-05-10T12:55:42;17.40;99.90
15239;DHT22;7722;53.274;9.500;2023-05-10T12:58:10;17.50;99.90
15239;DHT22;7722;53.274;9.500;2023-05-10T13:00:38;17.40;99.90
15239;DHT22;7722;53.274;9.500;2023-05-10T13:03:05;17.40;99.90
15239;DHT22;7722;53.274;9.500;2023-05-10T13:05:32;17.50;99.90
15239;DHT22;7722;53.274;9.500;2023-05-10T13:07:59;17.60;99.90
15239;DHT22;7722;53.274;9.500;2023-05-10T13:10:27;17.60;99.90
15239;DHT22;7722;53.274;9.500;2023-05-10T13:12:56;17.70;99.90
15239;DHT22;7722;53.274;9.500;2023-05-10T13:15:23;17.50;99.90
15239;DHT22;7722;53.274;9.500;2023-05-10T13:17:51;17.60;99.90
15239;DHT22;7722;53.274;9.500;2023-05-10T13:20:18;17.80;99.90
15239;DHT22;7722;53.274;9.500;2023-05-10T13:22:45;18.00;99.90
15239;DHT22;7722;53.274;9.500;2023-05-10T13:25:13;17.90;99.90
15239;DHT22;7722;53.274;9.500;2023-05-10T13:27:40;18.20;99.90
15239;DHT22;7722;53.274;9.500;2023-05-10T13:30:07;18.10;99.90
15239;DHT22;7722;53.274;9.500;2023-05-10T13:32:35;18.10;99.90
15239;DHT22;7722;53.274;9.500;2023-05-10T13:35:05;18.20;99.90
15239;DHT22;7722;53.274;9.500;2023-05-10T13:37:32;18.30;99.90
15239;DHT22;7722;53.274;9.500;2023-05-10T13:40:02;18.60;99.90
15239;DHT22;7722;53.274;9.500;2023-05-10T13:42:29;18.70;99.90
15239;DHT22;7722;53.274;9.500;2023-05-10T13:44:57;18.60;99.90
15239;DHT22;7722;53.274;9.500;2023-05-10T13:47:24;18.50;99.90
15239;DHT22;7722;53.274;9.500;2023-05-10T13:49:51;18.50;99.90
15239;DHT22;7722;53.274;9.500;2023-05-10T13:52:19;18.40;99.90
15239;DHT22;7722;53.274;9.500;2023-05-10T13:54:46;18.30;99.90
15239;DHT22;7722;53.274;9.500;2023-05-10T13:57:13;17.80;99.90
15239;DHT22;7722;53.274;9.500;2023-05-10T13:59:42;17.40;99.90
15239;DHT22;7722;53.274;9.500;2023-05-10T14:02:09;17.00;99.90
15239;DHT22;7722;53.274;9.500;2023-05-10T14:04:38;17.00;99.90
15239;DHT22;7722;53.274;9.500;2023-05-10T14:07:05;16.80;99.90
15239;DHT22;7722;53.274;9.500;2023-05-10T14:09:33;16.70;99.90
15239;DHT22;7722;53.274;9.500;2023-05-10T14:12:01;16.60;99.90
15239;DHT22;7722;53.274;9.500;2023-05-10T14:14:28;16.60;99.90
15239;DHT22;7722;53.274;9.500;2023-05-10T14:16:55;16.60;99.90
15239;DHT22;7722;53.274;9.500;2023-05-10T14:19:22;16.60;99.90
15239;DHT22;7722;53.274;9.500;2023-05-10T14:21:49;16.70;99.90
15239;DHT22;7722;53.274;9.500;2023-05-10T14:24:17;17.40;99.90
15239;DHT22;7722;53.274;9.500;2023-05-10T14:26:45;17.70;99.90
15239;DHT22;7722;53.274;9.500;2023-05-10T14:29:12;18.00;99.90
15239;DHT22;7722;53.274;9.500;2023-05-10T14:31:40;18.40;99.90
15239;DHT22;7722;53.274;9.500;2023-05-10T14:34:07;18.10;99.90
15239;DHT22;7722;53.274;9.500;2023-05-10T14:36:34;17.90;99.90
15239;DHT22;7722;53.274;9.500;2023-05-10T14:39:01;17.60;99.90
15239;DHT22;7722;53.274;9.500;2023-05-10T14:41:28;17.60;99.90
15239;DHT22;7722;53.274;9.500;2023-05-10T14:43:57;17.60;99.90
15239;DHT22;7722;53.274;9.500;2023-05-10T14:46:24;17.40;99.90
15239;DHT22;7722;53.274;9.500;2023-05-10T14:48:51;17.40;99.90
15239;DHT22;7722;53.274;9.500;2023-05-10T14:51:18;17.60;99.90
15239;DHT22;7722;53.274;9.500;2023-05-10T14:53:47;17.70;99.90
15239;DHT22;7722;53.274;9.500;2023-05-10T14:56:15;17.80;99.90
15239;DHT22;7722;53.274;9.500;2023-05-10T14:58:42;17.90;99.90
15239;DHT22;7722;53.274;9.500;2023-05-10T15:01:11;17.60;99.90
15239;DHT22;7722;53.274;9.500;2023-05-10T15:03:38;17.60;99.90
15239;DHT22;7722;53.274;9.500;2023-05-10T15:06:05;18.70;99.90
15239;DHT22;7722;53.274;9.500;2023-05-10T15:08:32;19.40;99.90
15239;DHT22;7722;53.274;9.500;2023-05-10T15:10:59;19.60;99.90
15239;DHT22;7722;53.274;9.500;2023-05-10T15:13:27;19.50;99.90
15239;DHT22;7722;53.274;9.500;2023-05-10T15:15:54;18.70;99.90
15239;DHT22;7722;53.274;9.500;2023-05-10T15:18:22;18.30;99.90
15239;DHT22;7722;53.274;9.500;2023-05-10T15:20:49;17.80;99.90
15239;DHT22;7722;53.274;9.500;2023-05-10T15:23:16;17.40;99.90
15239;DHT22;7722;53.274;9.500;2023-05-10T15:25:43;16.90;99.90
15239;DHT22;7722;53.274;9.500;2023-05-10T15:28:10;16.80;99.90
15239;DHT22;7722;53.274;9.500;2023-05-10T15:30:38;16.80;99.90
15239;DHT22;7722;53.274;9.500;2023-05-10T15:33:19;16.60;99.90
15239;DHT22;7722;53.274;9.500;2023-05-10T15:35:48;16.40;99.90
15239;DHT22;7722;53.274;9.500;2023-05-10T15:38:15;16.30;99.90
15239;DHT22;7722;53.274;9.500;2023-05-10T15:40:42;15.90;99.90
15239;DHT22;7722;53.274;9.500;2023-05-10T15:43:09;15.90;99.90
15239;DHT22;7722;53.274;9.500;2023-05-10T15:45:36;15.80;99.90
15239;DHT22;7722;53.274;9.500;2023-05-10T15:48:03;15.80;99.90
15239;DHT22;7722;53.274;9.500;2023-05-10T15:50:30;15.90;99.90
15239;DHT22;7722;53.274;9.500;2023-05-10T15:52:59;15.80;99.90
15239;DHT22;7722;53.274;9.500;2023-05-10T15:55:26;15.80;99.90
15239;DHT22;7722;53.274;9.500;2023-05-10T15:57:53;15.70;99.90